Flight Briefing for CPX955

Departure Arrival
Sacramento International Airport (KSMF)
Click to view FAA NOTAMS
Travis Air Force Base (KSUU)
Click to view FAA NOTAMS
Departure Time Arrival Time
N/A N/A
Aircraft Distance
B757-200SF 30nm
Departure METAR Arrival METAR
KSMF 271053Z 15004KT 10SM BKN085 BKN110 12/10 A2998 RMK AO2 SLP151 T01170100 KSUU 270958Z 22009KT 10SM SCT130 11/09 A2998 RMK AO2A SLP159 T01100086 $
Suggested Route





View recent IFR Routes data
Notes
EMPTY | NON-REVENUE REPOSITIONING LEG | VFR DEPARTURE RCMD IF WX PERMITS

Charts and Procedures

Charts for KSMF
No chart available
Charts for KSUU
No chart available

Windy.com Weather Map